Time;durP1;ratioP1;P1;durP2;ratioP2;P2;SDS_P1;SDS_P2;PMS_P1;PMS_P2;Temp;Humidity;BMP_temperature;BMP_pressure;BME280_temperature;BME280_humidity;BME280_pressure;Samples;Min_cycle;Max_cycle;Signal;HPM_P1;HPM_P2
2022/11/18 00:01:43;;;;;;;3.83;1.47;;;;;;;;;;4990030;28;21061;-80
2022/11/18 00:04:09;;;;;;;3.10;1.70;;;;;;;;;;4984208;28;20526;-79
2022/11/18 00:06:35;;;;;;;2.43;1.73;;;;;;;;;;4978501;28;20804;-80
2022/11/18 00:09:01;;;;;;;1.73;1.63;;;;;;;;;;4983358;28;20466;-79
2022/11/18 00:14:21;;;;;;;1.90;1.70;;;;;;;;;;4990137;28;20427;-79
2022/11/18 00:16:48;;;;;;;3.40;1.83;;;;;;;;;;4973069;28;20446;-79
2022/11/18 00:19:14;;;;;;;1.63;1.63;;;;;;;;;;4977396;28;20432;-79
2022/11/18 00:21:40;;;;;;;2.83;1.60;;;;;;;;;;4981994;28;20452;-80
2022/11/18 00:24:06;;;;;;;1.63;1.63;;;;;;;;;;4981574;28;20886;-79
2022/11/18 00:26:32;;;;;;;2.43;2.33;;;;;;;;;;4987764;28;20811;-80
2022/11/18 00:28:58;;;;;;;2.23;2.23;;;;;;;;;;4985349;28;20950;-80
2022/11/18 00:31:24;;;;;;;3.50;2.50;;;;;;;;;;4982199;28;20416;-79
2022/11/18 00:33:50;;;;;;;2.10;2.00;;;;;;;;;;4986669;28;20432;-80
2022/11/18 00:36:16;;;;;;;2.17;2.07;;;;;;;;;;4996642;28;20800;-80
2022/11/18 00:38:42;;;;;;;2.50;1.80;;;;;;;;;;4974335;28;20926;-80
2022/11/18 00:41:10;;;;;;;4.50;2.20;;;;;;;;;;4978510;28;20850;-80
2022/11/18 00:43:37;;;;;;;2.33;1.67;;;;;;;;;;4975790;28;20552;-80
2022/11/18 00:46:03;;;;;;;4.03;2.20;;;;;;;;;;4971031;28;20689;-80
2022/11/18 00:48:29;;;;;;;2.00;1.97;;;;;;;;;;4982993;28;20459;-80
2022/11/18 00:50:56;;;;;;;2.10;1.63;;;;;;;;;;4975048;28;20806;-81
2022/11/18 00:53:23;;;;;;;2.60;2.00;;;;;;;;;;4977384;28;20480;-80
2022/11/18 00:55:49;;;;;;;1.90;1.80;;;;;;;;;;4955953;28;20479;-79
2022/11/18 00:58:15;;;;;;;1.53;1.43;;;;;;;;;;4949555;28;20453;-79
2022/11/18 01:00:42;;;;;;;3.50;2.43;;;;;;;;;;4965817;28;20800;-79
2022/11/18 01:03:09;;;;;;;2.13;2.03;;;;;;;;;;4969226;28;20552;-81
2022/11/18 01:05:36;;;;;;;6.63;3.10;;;;;;;;;;4977087;28;20433;-80
2022/11/18 01:08:02;;;;;;;2.30;2.13;;;;;;;;;;4963742;28;20448;-78
2022/11/18 01:10:28;;;;;;;2.23;2.13;;;;;;;;;;4980955;28;20583;-80
2022/11/18 01:15:39;;;;;;;2.87;1.87;;;;;;;;;;4967149;28;20504;-78
2022/11/18 01:18:06;;;;;;;2.20;2.10;;;;;;;;;;4964182;28;20592;-78
2022/11/18 01:20:33;;;;;;;4.33;2.47;;;;;;;;;;4969040;28;20519;-79
2022/11/18 01:22:58;;;;;;;2.43;2.10;;;;;;;;;;4968114;28;20443;-79
2022/11/18 01:25:25;;;;;;;1.80;1.70;;;;;;;;;;4958004;28;21098;-79
2022/11/18 01:27:51;;;;;;;4.67;2.40;;;;;;;;;;4953845;28;20463;-79
2022/11/18 01:30:19;;;;;;;2.17;2.07;;;;;;;;;;4937024;28;20517;-79
2022/11/18 01:32:46;;;;;;;7.43;2.30;;;;;;;;;;4959762;28;20999;-80
2022/11/18 01:35:20;;;;;;;2.63;2.17;;;;;;;;;;4951590;29;20413;-80
2022/11/18 01:37:46;;;;;;;2.73;2.40;;;;;;;;;;4972394;28;20480;-80
2022/11/18 01:40:12;;;;;;;2.10;1.97;;;;;;;;;;4971650;28;20440;-79
2022/11/18 01:42:43;;;;;;;2.90;2.63;;;;;;;;;;4978969;28;20459;-79
2022/11/18 01:45:29;;;;;;;2.77;2.50;;;;;;;;;;5006413;28;20858;-80
2022/11/18 01:48:08;;;;;;;2.20;2.10;;;;;;;;;;4994550;28;20995;-80
2022/11/18 01:50:36;;;;;;;2.60;2.40;;;;;;;;;;4970164;28;20429;-80
2022/11/18 01:53:05;;;;;;;5.73;2.50;;;;;;;;;;5004091;28;20827;-80
2022/11/18 01:55:33;;;;;;;12.40;2.93;;;;;;;;;;5008503;28;20435;-80
2022/11/18 01:58:10;;;;;;;2.63;2.27;;;;;;;;;;5004625;28;20880;-80
2022/11/18 02:00:37;;;;;;;3.43;2.37;;;;;;;;;;4968947;28;20870;-80
2022/11/18 02:03:03;;;;;;;2.70;2.50;;;;;;;;;;4973531;28;20445;-79
2022/11/18 02:05:29;;;;;;;2.20;2.20;;;;;;;;;;5007538;28;20432;-79
2022/11/18 02:07:56;;;;;;;3.33;2.57;;;;;;;;;;4976304;28;20795;-78
2022/11/18 02:10:23;;;;;;;2.40;2.20;;;;;;;;;;4995627;28;21037;-79
2022/11/18 02:12:50;;;;;;;12.67;3.23;;;;;;;;;;4991720;28;20523;-81
2022/11/18 02:15:17;;;;;;;2.43;2.33;;;;;;;;;;4997796;28;20818;-80
2022/11/18 02:17:53;;;;;;;3.00;2.70;;;;;;;;;;4963826;28;20481;-81
2022/11/18 02:20:30;;;;;;;4.27;2.37;;;;;;;;;;4987746;28;20498;-79
2022/11/18 02:23:02;;;;;;;3.50;2.33;;;;;;;;;;4998957;28;20431;-81
2022/11/18 02:25:33;;;;;;;4.47;2.30;;;;;;;;;;5004158;28;20440;-81
2022/11/18 02:28:18;;;;;;;2.57;2.37;;;;;;;;;;4975170;28;20489;-82
2022/11/18 02:30:49;;;;;;;2.93;2.50;;;;;;;;;;4998783;28;20420;-81
2022/11/18 02:33:22;;;;;;;3.53;3.23;;;;;;;;;;4995928;28;20471;-80
2022/11/18 02:36:00;;;;;;;3.20;3.00;;;;;;;;;;4981048;28;20810;-80
2022/11/18 02:38:27;;;;;;;4.53;3.03;;;;;;;;;;4974788;28;20503;-80
2022/11/18 02:40:59;;;;;;;3.37;3.17;;;;;;;;;;4981634;28;20432;-80
2022/11/18 02:43:31;;;;;;;7.20;3.80;;;;;;;;;;4981984;28;20480;-80
2022/11/18 02:46:01;;;;;;;4.40;2.50;;;;;;;;;;4986242;28;21231;-80
2022/11/18 02:48:29;;;;;;;3.23;3.03;;;;;;;;;;4980744;28;20444;-80
2022/11/18 02:50:56;;;;;;;2.90;2.67;;;;;;;;;;4998945;28;20930;-80
2022/11/18 02:53:23;;;;;;;5.10;3.13;;;;;;;;;;4986660;28;20518;-80
2022/11/18 02:55:50;;;;;;;3.70;3.50;;;;;;;;;;4996295;28;20448;-80
2022/11/18 02:58:18;;;;;;;2.63;2.43;;;;;;;;;;4967079;28;20472;-81
2022/11/18 03:00:44;;;;;;;3.17;3.00;;;;;;;;;;4987316;28;21201;-81
2022/11/18 03:03:24;;;;;;;4.73;2.83;;;;;;;;;;4987235;28;20519;-81
2022/11/18 03:05:57;;;;;;;2.70;2.60;;;;;;;;;;4987994;28;20455;-81
2022/11/18 03:08:25;;;;;;;2.40;2.30;;;;;;;;;;4983373;28;20456;-80
2022/11/18 03:11:03;;;;;;;4.40;4.00;;;;;;;;;;4995877;28;20497;-80
2022/11/18 03:13:35;;;;;;;2.40;2.40;;;;;;;;;;4983815;28;20516;-80
2022/11/18 03:16:03;;;;;;;7.07;3.10;;;;;;;;;;4984988;28;20431;-80
2022/11/18 03:18:38;;;;;;;2.47;2.17;;;;;;;;;;4991143;28;20463;-80
2022/11/18 03:21:28;;;;;;;2.93;2.73;;;;;;;;;;4989754;28;20438;-80
2022/11/18 03:23:58;;;;;;;6.83;4.00;;;;;;;;;;4978314;28;20949;-80
2022/11/18 03:26:32;;;;;;;3.60;2.60;;;;;;;;;;4984003;28;20428;-80
2022/11/18 03:29:02;;;;;;;2.60;2.50;;;;;;;;;;4990899;28;20409;-79
2022/11/18 03:31:30;;;;;;;2.87;2.63;;;;;;;;;;4991658;28;20526;-80
2022/11/18 03:34:01;;;;;;;2.83;2.33;;;;;;;;;;4986120;28;20420;-81
2022/11/18 03:36:29;;;;;;;3.07;2.77;;;;;;;;;;4995631;28;20524;-81
2022/11/18 03:38:59;;;;;;;3.00;2.70;;;;;;;;;;4987397;28;20416;-82
2022/11/18 03:41:26;;;;;;;7.63;2.70;;;;;;;;;;4991876;28;20495;-80
2022/11/18 03:44:06;;;;;;;3.70;3.33;;;;;;;;;;5007066;28;20422;-81
2022/11/18 03:46:37;;;;;;;5.60;3.07;;;;;;;;;;4987044;28;20459;-81
2022/11/18 03:49:05;;;;;;;3.07;2.90;;;;;;;;;;4974430;28;21167;-80
2022/11/18 03:51:42;;;;;;;3.40;3.20;;;;;;;;;;4990047;28;20447;-80
2022/11/18 03:54:11;;;;;;;3.10;2.43;;;;;;;;;;4987384;28;20408;-80
2022/11/18 03:56:42;;;;;;;3.37;3.23;;;;;;;;;;4976447;28;20533;-80
2022/11/18 03:59:19;;;;;;;4.00;2.70;;;;;;;;;;4957935;28;20511;-81
2022/11/18 04:01:47;;;;;;;2.40;2.20;;;;;;;;;;4971192;28;20436;-82
2022/11/18 04:04:13;;;;;;;2.77;2.67;;;;;;;;;;4974990;28;20420;-79
2022/11/18 04:06:46;;;;;;;4.60;2.70;;;;;;;;;;4988480;28;20511;-79
2022/11/18 04:09:26;;;;;;;2.13;2.13;;;;;;;;;;4986701;28;20628;-80
2022/11/18 04:12:02;;;;;;;3.47;2.80;;;;;;;;;;4966695;28;20468;-80
2022/11/18 04:14:36;;;;;;;2.37;2.20;;;;;;;;;;4983688;28;20490;-80
2022/11/18 04:17:08;;;;;;;3.00;2.80;;;;;;;;;;4964452;28;20867;-83
2022/11/18 04:19:34;;;;;;;3.83;2.63;;;;;;;;;;4972998;28;20926;-81
2022/11/18 04:22:00;;;;;;;3.33;3.03;;;;;;;;;;4974384;28;20957;-81
2022/11/18 04:24:26;;;;;;;3.50;3.00;;;;;;;;;;4972787;28;20423;-82
2022/11/18 04:27:01;;;;;;;3.60;2.93;;;;;;;;;;4967325;28;20436;-87
2022/11/18 04:29:36;;;;;;;4.90;3.23;;;;;;;;;;5005863;28;20412;-90
2022/11/18 04:32:03;;;;;;;8.73;5.73;;;;;;;;;;5007983;28;20456;-79
2022/11/18 04:34:29;;;;;;;3.00;2.90;;;;;;;;;;4983970;28;20480;-78
2022/11/18 04:36:56;;;;;;;3.43;2.80;;;;;;;;;;4987082;28;20441;-78
2022/11/18 04:39:22;;;;;;;3.60;3.30;;;;;;;;;;4984827;28;20551;-80
2022/11/18 04:41:54;;;;;;;4.77;3.87;;;;;;;;;;4975585;28;20533;-81
2022/11/18 04:44:29;;;;;;;3.47;3.33;;;;;;;;;;4979740;28;20571;-81
2022/11/18 04:46:56;;;;;;;3.50;2.83;;;;;;;;;;4981352;28;20451;-80
2022/11/18 04:49:22;;;;;;;7.83;3.93;;;;;;;;;;4986905;28;20412;-81
2022/11/18 04:51:49;;;;;;;3.37;3.27;;;;;;;;;;4972007;28;20484;-81
2022/11/18 04:54:15;;;;;;;3.67;3.43;;;;;;;;;;4986500;28;20421;-80
2022/11/18 04:56:44;;;;;;;9.00;4.70;;;;;;;;;;4988457;28;20443;-80
2022/11/18 04:59:10;;;;;;;5.47;3.90;;;;;;;;;;4991839;28;20423;-81
2022/11/18 05:01:37;;;;;;;4.63;4.10;;;;;;;;;;4993746;28;20817;-81
2022/11/18 05:04:06;;;;;;;12.13;4.53;;;;;;;;;;4968968;28;20421;-80
2022/11/18 05:06:33;;;;;;;6.00;3.93;;;;;;;;;;4988522;28;20523;-80
2022/11/18 05:09:02;;;;;;;6.50;3.70;;;;;;;;;;5001315;28;20432;-80
2022/11/18 05:14:13;;;;;;;4.33;3.20;;;;;;;;;;4980172;28;20517;-79
2022/11/18 05:16:39;;;;;;;10.43;4.37;;;;;;;;;;4988018;28;20506;-80
2022/11/18 05:19:06;;;;;;;4.50;4.20;;;;;;;;;;4989937;28;20827;-78
2022/11/18 05:21:32;;;;;;;5.30;4.70;;;;;;;;;;4989285;28;20906;-79
2022/11/18 05:23:59;;;;;;;5.13;4.57;;;;;;;;;;4986240;28;20503;-79
2022/11/18 05:26:25;;;;;;;5.23;4.77;;;;;;;;;;4990810;28;20907;-81
2022/11/18 05:28:51;;;;;;;6.80;4.00;;;;;;;;;;4980895;28;20915;-82
2022/11/18 05:31:17;;;;;;;4.83;4.07;;;;;;;;;;4966372;28;20428;-81
2022/11/18 05:33:44;;;;;;;5.00;4.60;;;;;;;;;;4990527;28;20483;-79
2022/11/18 05:36:11;;;;;;;6.50;3.97;;;;;;;;;;4968829;28;20455;-79
2022/11/18 05:38:37;;;;;;;7.27;3.70;;;;;;;;;;5006571;28;20424;-80
2022/11/18 05:41:04;;;;;;;6.10;5.03;;;;;;;;;;5003480;28;20505;-79
2022/11/18 05:43:30;;;;;;;4.20;3.90;;;;;;;;;;5007998;28;20903;-79
2022/11/18 05:45:56;;;;;;;5.00;4.57;;;;;;;;;;4977858;28;20437;-81
2022/11/18 05:48:22;;;;;;;5.17;4.63;;;;;;;;;;4983158;28;20992;-80
2022/11/18 05:50:52;;;;;;;5.90;4.80;;;;;;;;;;4996203;28;20451;-80
2022/11/18 05:53:19;;;;;;;6.00;3.93;;;;;;;;;;4982382;28;20465;-80
2022/11/18 05:56:11;;;;;;;7.53;4.70;;;;;;;;;;4995046;28;20481;-81
2022/11/18 05:58:37;;;;;;;6.40;4.10;;;;;;;;;;4956407;28;20707;-81
2022/11/18 06:01:05;;;;;;;4.33;3.93;;;;;;;;;;4991741;28;20789;-80
2022/11/18 06:03:31;;;;;;;4.23;3.83;;;;;;;;;;4972277;28;20440;-80
2022/11/18 06:05:59;;;;;;;11.03;4.70;;;;;;;;;;4984909;28;20439;-82
2022/11/18 06:08:28;;;;;;;5.73;4.57;;;;;;;;;;4992514;28;20436;-81
2022/11/18 06:10:54;;;;;;;6.47;4.87;;;;;;;;;;4986758;28;20453;-82
2022/11/18 06:13:26;;;;;;;4.83;4.27;;;;;;;;;;4988681;28;20471;-80
2022/11/18 06:15:52;;;;;;;12.90;4.13;;;;;;;;;;4975291;28;21039;-81
2022/11/18 06:18:22;;;;;;;5.50;4.50;;;;;;;;;;4987473;28;20416;-81
2022/11/18 06:20:48;;;;;;;4.77;4.20;;;;;;;;;;4977471;28;20441;-81
2022/11/18 06:23:14;;;;;;;6.37;4.40;;;;;;;;;;4997897;28;20417;-79
2022/11/18 06:25:40;;;;;;;6.80;4.30;;;;;;;;;;4972664;28;20527;-81
2022/11/18 06:28:08;;;;;;;6.67;5.20;;;;;;;;;;4994700;28;20491;-80
2022/11/18 06:30:34;;;;;;;4.93;3.90;;;;;;;;;;4995333;28;20982;-80
2022/11/18 06:33:00;;;;;;;4.47;3.93;;;;;;;;;;4974503;28;20468;-80
2022/11/18 06:35:26;;;;;;;5.00;4.60;;;;;;;;;;4998663;28;20618;-80
2022/11/18 06:37:52;;;;;;;10.37;3.80;;;;;;;;;;4970755;28;20782;-81
2022/11/18 06:40:18;;;;;;;4.53;4.13;;;;;;;;;;5001823;28;20481;-80
2022/11/18 06:45:29;;;;;;;4.10;3.70;;;;;;;;;;4978965;28;20524;-81
2022/11/18 06:48:03;;;;;;;6.53;4.07;;;;;;;;;;4981557;28;20523;-81
2022/11/18 06:50:29;;;;;;;10.23;3.60;;;;;;;;;;4975671;28;20477;-80
2022/11/18 06:53:01;;;;;;;6.70;3.77;;;;;;;;;;4966901;28;20481;-79
2022/11/18 06:55:27;;;;;;;3.47;3.37;;;;;;;;;;4978918;28;20977;-78
2022/11/18 06:57:55;;;;;;;3.73;3.73;;;;;;;;;;4976851;28;20421;-80
2022/11/18 07:00:21;;;;;;;4.60;3.33;;;;;;;;;;4988091;28;20915;-79
2022/11/18 07:02:47;;;;;;;4.87;3.73;;;;;;;;;;4971756;28;21303;-79
2022/11/18 07:05:13;;;;;;;6.27;4.53;;;;;;;;;;4984666;28;20805;-77
2022/11/18 07:07:39;;;;;;;6.03;4.30;;;;;;;;;;5007875;28;20912;-78
2022/11/18 07:10:05;;;;;;;4.95;4.53;;;;;;;;;;4644298;28;10000071;-79
2022/11/18 07:12:31;;;;;;;6.53;3.80;;;;;;;;;;4986646;28;20231;-80
2022/11/18 07:14:57;;;;;;;5.03;4.60;;;;;;;;;;4981814;28;20432;-79
2022/11/18 07:17:23;;;;;;;9.30;5.33;;;;;;;;;;4992293;28;20429;-78
2022/11/18 07:19:49;;;;;;;4.40;4.07;;;;;;;;;;4982029;28;20966;-79
2022/11/18 07:22:21;;;;;;;6.10;4.90;;;;;;;;;;4984380;28;20443;-79
2022/11/18 07:24:47;;;;;;;7.97;4.60;;;;;;;;;;4968056;28;20433;-78
2022/11/18 07:27:13;;;;;;;5.20;4.70;;;;;;;;;;4970322;28;20459;-78
2022/11/18 07:29:39;;;;;;;4.67;4.33;;;;;;;;;;4986223;28;20491;-79
2022/11/18 07:32:06;;;;;;;5.70;5.27;;;;;;;;;;4988532;28;20476;-80
2022/11/18 07:34:32;;;;;;;3.43;3.23;;;;;;;;;;4980285;28;20957;-79
2022/11/18 07:36:58;;;;;;;4.90;4.40;;;;;;;;;;4980186;28;20425;-79
2022/11/18 07:39:24;;;;;;;6.87;3.80;;;;;;;;;;4985228;28;20815;-80
2022/11/18 07:41:53;;;;;;;5.00;4.20;;;;;;;;;;4982179;28;20478;-79
2022/11/18 07:44:19;;;;;;;4.10;3.80;;;;;;;;;;4971385;28;20974;-80
2022/11/18 07:46:45;;;;;;;6.33;4.23;;;;;;;;;;4954222;28;20455;-79
2022/11/18 07:49:11;;;;;;;3.70;3.60;;;;;;;;;;4970109;28;20469;-80
2022/11/18 07:51:40;;;;;;;3.87;3.63;;;;;;;;;;4961245;28;20967;-81
2022/11/18 07:54:09;;;;;;;3.07;3.03;;;;;;;;;;4975260;28;20440;-82
2022/11/18 07:56:35;;;;;;;3.40;3.30;;;;;;;;;;4965040;28;20452;-82
2022/11/18 07:59:01;;;;;;;4.00;3.70;;;;;;;;;;4984613;28;20433;-82
2022/11/18 08:01:37;;;;;;;3.90;3.53;;;;;;;;;;4980426;28;20523;-82
2022/11/18 08:04:07;;;;;;;7.33;3.17;;;;;;;;;;4968353;28;20465;-82
2022/11/18 08:06:34;;;;;;;4.07;3.73;;;;;;;;;;4972131;28;20929;-81
2022/11/18 08:09:00;;;;;;;4.30;4.10;;;;;;;;;;4970145;28;20874;-81
2022/11/18 08:11:28;;;;;;;3.93;3.77;;;;;;;;;;4978140;28;20429;-81
2022/11/18 08:13:54;;;;;;;10.23;4.07;;;;;;;;;;4971804;28;20562;-81
2022/11/18 08:16:22;;;;;;;8.10;6.03;;;;;;;;;;4994377;28;20436;-81
2022/11/18 08:18:51;;;;;;;11.00;5.00;;;;;;;;;;4964882;28;21085;-82
2022/11/18 08:21:19;;;;;;;9.83;4.97;;;;;;;;;;4975770;28;20548;-82
2022/11/18 08:23:52;;;;;;;4.40;4.20;;;;;;;;;;4968637;28;20425;-81
2022/11/18 08:26:18;;;;;;;4.23;3.93;;;;;;;;;;4985105;28;20802;-83
2022/11/18 08:28:44;;;;;;;6.70;4.60;;;;;;;;;;4980393;28;20555;-80
2022/11/18 08:31:11;;;;;;;4.73;4.43;;;;;;;;;;4979571;28;20432;-81
2022/11/18 08:33:37;;;;;;;4.57;3.20;;;;;;;;;;4997228;28;20489;-79
2022/11/18 08:36:12;;;;;;;4.77;3.80;;;;;;;;;;4996163;28;20440;-80
2022/11/18 08:38:38;;;;;;;4.40;3.83;;;;;;;;;;4971843;28;20957;-78
2022/11/18 08:41:06;;;;;;;3.90;3.60;;;;;;;;;;4979632;28;21093;-78
2022/11/18 08:43:39;;;;;;;3.63;3.20;;;;;;;;;;4977327;28;20474;-78
2022/11/18 08:46:13;;;;;;;4.10;3.03;;;;;;;;;;4955180;28;20432;-78
2022/11/18 08:48:39;;;;;;;3.83;3.23;;;;;;;;;;4977370;28;20974;-77
2022/11/18 08:51:05;;;;;;;5.40;3.47;;;;;;;;;;4985315;28;20494;-80
2022/11/18 08:53:32;;;;;;;3.67;3.40;;;;;;;;;;4994828;28;20477;-79
2022/11/18 08:56:00;;;;;;;3.57;3.37;;;;;;;;;;4991448;28;20430;-80
2022/11/18 08:58:26;;;;;;;3.43;3.30;;;;;;;;;;4964053;28;20951;-80
2022/11/18 09:00:53;;;;;;;3.67;3.37;;;;;;;;;;4976194;28;20481;-80
2022/11/18 09:03:28;;;;;;;5.43;3.60;;;;;;;;;;4974982;28;21195;-78
2022/11/18 09:06:14;;;;;;;4.70;2.90;;;;;;;;;;4990739;28;20415;-79
2022/11/18 09:08:41;;;;;;;4.53;3.07;;;;;;;;;;4973899;28;20435;-78
2022/11/18 09:11:08;;;;;;;3.10;2.90;;;;;;;;;;4975256;28;20502;-80
2022/11/18 09:13:35;;;;;;;3.23;2.90;;;;;;;;;;4985604;28;20467;-80
2022/11/18 09:16:02;;;;;;;4.23;2.90;;;;;;;;;;4987020;28;20896;-82
2022/11/18 09:18:28;;;;;;;3.07;2.87;;;;;;;;;;4971672;28;20534;-81
2022/11/18 09:20:55;;;;;;;4.10;3.80;;;;;;;;;;4979622;28;20441;-82
2022/11/18 09:23:22;;;;;;;3.37;3.07;;;;;;;;;;4992884;28;20453;-81
2022/11/18 09:25:48;;;;;;;4.33;3.83;;;;;;;;;;4982912;28;20447;-80
2022/11/18 09:28:14;;;;;;;2.90;2.67;;;;;;;;;;5001287;28;20436;-80
2022/11/18 09:30:40;;;;;;;2.50;2.50;;;;;;;;;;4982949;28;20467;-79
2022/11/18 09:33:06;;;;;;;4.50;3.17;;;;;;;;;;4982049;28;20562;-79
2022/11/18 09:35:35;;;;;;;4.13;3.40;;;;;;;;;;5003722;28;20438;-79
2022/11/18 09:38:01;;;;;;;2.73;2.53;;;;;;;;;;4978672;28;20494;-80
2022/11/18 09:40:27;;;;;;;2.67;2.50;;;;;;;;;;4994298;28;20444;-79
2022/11/18 09:43:07;;;;;;;6.37;3.23;;;;;;;;;;4971241;28;21002;-80
2022/11/18 09:45:37;;;;;;;3.00;2.80;;;;;;;;;;4972221;28;20439;-78
2022/11/18 09:48:13;;;;;;;3.70;3.50;;;;;;;;;;4978879;28;20854;-79
2022/11/18 09:50:39;;;;;;;3.23;3.03;;;;;;;;;;4989297;28;20462;-78
2022/11/18 09:53:11;;;;;;;2.73;2.63;;;;;;;;;;4981954;28;20947;-80
2022/11/18 09:55:38;;;;;;;3.83;2.70;;;;;;;;;;4987644;28;20571;-77
2022/11/18 09:58:05;;;;;;;2.10;1.93;;;;;;;;;;4980370;28;20428;-80
2022/11/18 10:00:31;;;;;;;3.50;3.17;;;;;;;;;;4984947;28;20571;-80
2022/11/18 10:03:01;;;;;;;3.70;2.20;;;;;;;;;;4965999;28;21088;-78
2022/11/18 10:05:27;;;;;;;2.75;2.55;;;;;;;;;;4617999;28;9999699;-78
2022/11/18 10:08:26;;;;;;;2.60;2.50;;;;;;;;;;4980354;28;20190;-77
2022/11/18 10:10:58;;;;;;;3.07;2.90;;;;;;;;;;4932913;28;20544;-77
2022/11/18 10:13:27;;;;;;;2.93;2.30;;;;;;;;;;4985471;28;20566;-79
2022/11/18 10:15:59;;;;;;;4.80;2.17;;;;;;;;;;4982254;28;20523;-77
2022/11/18 10:19:04;;;;;;;4.27;2.50;;;;;;;;;;4985876;28;20443;-84
2022/11/18 10:21:33;;;;;;;4.53;2.00;;;;;;;;;;4963141;28;20667;-84
2022/11/18 10:24:02;;;;;;;2.30;2.20;;;;;;;;;;4988223;28;20421;-84
2022/11/18 10:26:38;;;;;;;2.23;2.10;;;;;;;;;;4989060;28;20432;-83
2022/11/18 10:29:08;;;;;;;47.97;29.73;;;;;;;;;;4987627;28;20464;-82
2022/11/18 10:31:53;;;;;;;6.13;2.60;;;;;;;;;;4987879;28;20424;-83
2022/11/18 10:34:19;;;;;;;2.47;1.87;;;;;;;;;;4969441;28;20974;-83
2022/11/18 10:36:58;;;;;;;4.50;2.47;;;;;;;;;;4988142;28;20504;-84
2022/11/18 10:39:24;;;;;;;3.70;2.60;;;;;;;;;;4991787;28;20422;-85
2022/11/18 10:41:55;;;;;;;2.20;2.00;;;;;;;;;;4997857;28;20485;-83
2022/11/18 10:44:34;;;;;;;2.60;2.40;;;;;;;;;;4974887;28;20532;-84
2022/11/18 10:47:18;;;;;;;5.00;2.67;;;;;;;;;;4996482;28;20476;-84
2022/11/18 10:49:44;;;;;;;2.57;2.33;;;;;;;;;;4975130;28;20439;-83
2022/11/18 10:52:12;;;;;;;3.07;2.83;;;;;;;;;;4971964;28;20729;-84
2022/11/18 10:54:38;;;;;;;3.17;2.60;;;;;;;;;;4986735;28;20468;-83
2022/11/18 10:57:20;;;;;;;2.93;2.80;;;;;;;;;;5006041;28;20820;-83
2022/11/18 10:59:52;;;;;;;2.93;2.63;;;;;;;;;;4998031;28;20468;-85
2022/11/18 11:02:29;;;;;;;3.17;2.60;;;;;;;;;;4984864;28;20471;-85
2022/11/18 11:05:15;;;;;;;3.07;2.87;;;;;;;;;;4987477;28;20420;-85
2022/11/18 11:07:41;;;;;;;6.97;2.47;;;;;;;;;;4988352;28;20432;-82
2022/11/18 11:10:10;;;;;;;3.30;2.93;;;;;;;;;;5016281;28;20553;-85
2022/11/18 11:12:47;;;;;;;;;;;;;;;;;;;;;
2022/11/18 11:15:19;;;;;;;3.37;2.80;;;;;;;;;;4996306;28;20372;-84
2022/11/18 11:18:40;;;;;;;52.97;37.43;;;;;;;;;;4984332;28;20435;-87
2022/11/18 11:20:36;;;;;;;2.10;2.10;;;;;;;;;;4987984;28;20468;-83
2022/11/18 11:23:08;;;;;;;1.90;1.63;;;;;;;;;;4973682;28;20457;-83
2022/11/18 11:25:41;;;;;;;19.00;3.47;;;;;;;;;;4993359;28;20480;-82
2022/11/18 11:28:25;;;;;;;2.53;2.10;;;;;;;;;;4992176;28;20868;-84
2022/11/18 11:31:11;;;;;;;2.10;2.00;;;;;;;;;;4989722;28;20549;-82
2022/11/18 11:33:37;;;;;;;3.60;2.50;;;;;;;;;;4974697;28;20472;-81
2022/11/18 11:36:22;;;;;;;2.60;2.33;;;;;;;;;;4974484;28;20449;-82
2022/11/18 11:38:58;;;;;;;2.90;2.70;;;;;;;;;;4990445;28;20497;-82
2022/11/18 11:42:01;;;;;;;;;;;;;;;;;;;;;
2022/11/18 11:44:46;;;;;;;1.80;1.77;;;;;;;;;;4958538;28;20575;-84
2022/11/18 11:50:52;;;;;;;4.87;2.10;;;;;;;;;;4972278;28;20428;-82
2022/11/18 11:53:41;;;;;;;2.00;1.90;;;;;;;;;;4987191;28;20478;-82
2022/11/18 11:56:10;;;;;;;4.57;2.70;;;;;;;;;;4952623;28;20768;-85
2022/11/18 11:58:39;;;;;;;2.03;1.93;;;;;;;;;;4957894;28;20503;-84
2022/11/18 12:01:08;;;;;;;3.13;2.10;;;;;;;;;;4975738;28;20457;-85
2022/11/18 12:03:34;;;;;;;4.43;2.57;;;;;;;;;;4981635;28;20527;-83
2022/11/18 12:06:02;;;;;;;4.93;2.10;;;;;;;;;;4973024;28;20441;-87
2022/11/18 12:08:49;;;;;;;2.03;1.90;;;;;;;;;;4953877;28;20437;-88
2022/11/18 12:11:27;;;;;;;3.90;1.80;;;;;;;;;;4959974;28;20546;-85
2022/11/18 12:13:53;;;;;;;2.67;2.20;;;;;;;;;;4967197;28;20520;-82
2022/11/18 12:16:32;;;;;;;2.30;2.07;;;;;;;;;;4981395;28;20441;-87
2022/11/18 12:19:01;;;;;;;5.63;1.97;;;;;;;;;;4969879;28;20428;-80
2022/11/18 12:21:51;;;;;;;4.87;2.90;;;;;;;;;;4948462;28;20449;-81
2022/11/18 12:24:21;;;;;;;5.37;2.40;;;;;;;;;;4969215;28;20468;-81
2022/11/18 12:26:56;;;;;;;2.50;2.40;;;;;;;;;;4955222;28;20441;-81
2022/11/18 12:29:25;;;;;;;3.40;2.50;;;;;;;;;;4959849;28;20510;-82
2022/11/18 12:31:55;;;;;;;3.80;2.63;;;;;;;;;;4944003;28;20441;-81
2022/11/18 12:34:26;;;;;;;3.13;2.20;;;;;;;;;;4962425;28;20432;-83
2022/11/18 12:36:53;;;;;;;2.83;2.53;;;;;;;;;;4948763;28;20462;-80
2022/11/18 12:39:23;;;;;;;4.17;2.80;;;;;;;;;;4965594;28;20481;-81
2022/11/18 12:44:41;;;;;;;2.30;2.10;;;;;;;;;;4983130;28;20959;-81
2022/11/18 12:47:14;;;;;;;3.80;2.23;;;;;;;;;;4980002;28;20451;-80
2022/11/18 12:49:45;;;;;;;2.73;1.90;;;;;;;;;;4991120;28;20451;-83
2022/11/18 12:52:47;;;;;;;2.33;2.10;;;;;;;;;;4292970;28;10000629;-81
2022/11/18 12:55:22;;;;;;;3.50;2.43;;;;;;;;;;4956999;28;20270;-80
2022/11/18 12:58:00;;;;;;;2.53;2.33;;;;;;;;;;4981056;28;20907;-82
2022/11/18 13:00:29;;;;;;;2.60;2.50;;;;;;;;;;4974954;28;20446;-79
2022/11/18 13:03:05;;;;;;;2.80;1.90;;;;;;;;;;4964060;28;20480;-80
2022/11/18 13:05:35;;;;;;;2.93;1.90;;;;;;;;;;4960038;28;20889;-80
2022/11/18 13:08:14;;;;;;;4.10;2.10;;;;;;;;;;4966571;28;20441;-80
2022/11/18 13:10:44;;;;;;;2.50;2.40;;;;;;;;;;4967694;28;20463;-80
2022/11/18 13:13:24;;;;;;;5.60;2.70;;;;;;;;;;4970545;28;20440;-80
2022/11/18 13:18:46;;;;;;;4.33;2.40;;;;;;;;;;4975521;28;20454;-79
2022/11/18 13:24:04;;;;;;;2.03;1.50;;;;;;;;;;4978729;28;20467;-80
2022/11/18 13:26:31;;;;;;;2.67;1.63;;;;;;;;;;4980995;28;20531;-80
2022/11/18 13:29:02;;;;;;;2.13;1.50;;;;;;;;;;4994357;28;20986;-80
2022/11/18 13:31:37;;;;;;;4.80;1.63;;;;;;;;;;4959460;28;20508;-80
2022/11/18 13:34:09;;;;;;;1.80;1.70;;;;;;;;;;4973830;28;20444;-79
2022/11/18 13:36:42;;;;;;;1.60;1.43;;;;;;;;;;4983039;28;20536;-79
2022/11/18 13:39:22;;;;;;;4.97;2.03;;;;;;;;;;4975709;28;20987;-80
2022/11/18 13:41:57;;;;;;;1.80;1.33;;;;;;;;;;4989382;28;20467;-80
2022/11/18 13:44:26;;;;;;;3.30;2.73;;;;;;;;;;4972541;28;20437;-80
2022/11/18 13:47:01;;;;;;;3.27;1.70;;;;;;;;;;4956932;28;20584;-82
2022/11/18 13:49:53;;;;;;;4.53;1.97;;;;;;;;;;4995457;28;21303;-84
2022/11/18 13:52:29;;;;;;;2.73;1.90;;;;;;;;;;4954260;28;20442;-82
2022/11/18 13:55:02;;;;;;;2.50;2.30;;;;;;;;;;4958886;28;20432;-83
2022/11/18 13:57:28;;;;;;;2.20;1.90;;;;;;;;;;4963466;28;20437;-84
2022/11/18 13:59:55;;;;;;;3.50;1.50;;;;;;;;;;4961904;28;20590;-84
2022/11/18 14:02:21;;;;;;;4.00;1.90;;;;;;;;;;4972945;28;20468;-80
2022/11/18 14:04:58;;;;;;;1.60;1.60;;;;;;;;;;4943275;28;20491;-83
2022/11/18 14:07:32;;;;;;;4.43;4.03;;;;;;;;;;4972948;28;20425;-85
2022/11/18 14:10:07;;;;;;;2.20;1.90;;;;;;;;;;4949860;28;20454;-84
2022/11/18 14:12:41;;;;;;;2.07;1.87;;;;;;;;;;4980651;28;20476;-83
2022/11/18 14:15:29;;;;;;;4.30;2.47;;;;;;;;;;4975531;28;20437;-84
2022/11/18 14:18:08;;;;;;;3.03;2.10;;;;;;;;;;4971620;28;20461;-83
2022/11/18 14:20:43;;;;;;;3.83;2.23;;;;;;;;;;4978150;28;20424;-84
2022/11/18 14:23:15;;;;;;;3.93;2.40;;;;;;;;;;4960142;28;20537;-85
2022/11/18 14:25:46;;;;;;;2.43;2.23;;;;;;;;;;4971832;28;20446;-83
2022/11/18 14:28:42;;;;;;;7.43;2.97;;;;;;;;;;4960607;28;20442;-86
2022/11/18 14:31:17;;;;;;;2.63;2.20;;;;;;;;;;4613764;28;10000869;-81
2022/11/18 14:34:13;;;;;;;;;;;;;;;;;;;;;
2022/11/18 14:36:57;;;;;;;;;;;;;;;;;;;;;
2022/11/18 14:39:28;;;;;;;2.87;2.33;;;;;;;;;;4961409;28;20639;-80
2022/11/18 14:41:54;;;;;;;2.90;2.67;;;;;;;;;;4972266;28;20475;-79
2022/11/18 14:44:21;;;;;;;4.97;2.50;;;;;;;;;;4958780;28;20440;-81
2022/11/18 14:46:51;;;;;;;3.03;2.63;;;;;;;;;;4988052;28;20444;-80
2022/11/18 14:49:18;;;;;;;3.70;3.27;;;;;;;;;;4988432;28;20455;-82
2022/11/18 14:51:44;;;;;;;5.27;3.83;;;;;;;;;;4990082;28;20442;-81
2022/11/18 14:54:18;;;;;;;4.20;3.17;;;;;;;;;;4971379;28;20959;-81
2022/11/18 14:56:45;;;;;;;2.57;2.47;;;;;;;;;;4972468;28;20448;-80
2022/11/18 14:59:30;;;;;;;7.73;3.77;;;;;;;;;;4967585;28;20467;-80
2022/11/18 15:01:57;;;;;;;3.47;3.17;;;;;;;;;;4984694;28;20554;-82
2022/11/18 15:04:24;;;;;;;4.13;3.23;;;;;;;;;;4963712;28;20436;-81
2022/11/18 15:06:50;;;;;;;3.07;2.87;;;;;;;;;;4989347;28;20905;-80
2022/11/18 15:09:17;;;;;;;2.97;2.77;;;;;;;;;;4965224;28;20457;-79
2022/11/18 15:11:44;;;;;;;7.93;3.37;;;;;;;;;;4975886;28;20440;-78
2022/11/18 15:14:10;;;;;;;3.67;3.37;;;;;;;;;;4986254;28;20462;-80
2022/11/18 15:16:36;;;;;;;4.17;3.87;;;;;;;;;;4964811;28;20593;-78
2022/11/18 15:19:04;;;;;;;7.10;5.03;;;;;;;;;;4639862;28;10000340;-76
2022/11/18 15:21:31;;;;;;;6.47;6.07;;;;;;;;;;4985172;28;20199;-77
2022/11/18 15:23:57;;;;;;;9.37;8.50;;;;;;;;;;4982834;28;21032;-77
2022/11/18 15:26:23;;;;;;;10.97;9.90;;;;;;;;;;4984430;28;20482;-77
2022/11/18 15:28:50;;;;;;;10.33;8.40;;;;;;;;;;4984513;28;20409;-77